sensor_id;sensor_type;location;lat;lon;timestamp;P1;durP1;ratioP1;P2;durP2;ratioP2
63959;SDS011;50136;51.374;0.096;2023-12-22T00:06:24;37.13;;;7.15;;
63959;SDS011;50136;51.374;0.096;2023-12-22T00:16:26;34.40;;;6.80;;
63959;SDS011;50136;51.374;0.096;2023-12-22T00:26:29;28.90;;;6.70;;
63959;SDS011;50136;51.374;0.096;2023-12-22T00:36:31;37.83;;;6.60;;
63959;SDS011;50136;51.374;0.096;2023-12-22T00:46:35;25.45;;;4.05;;
63959;SDS011;50136;51.374;0.096;2023-12-22T00:56:37;20.13;;;4.55;;
63959;SDS011;50136;51.374;0.096;2023-12-22T01:06:40;19.08;;;4.80;;
63959;SDS011;50136;51.374;0.096;2023-12-22T01:16:42;22.98;;;5.60;;
63959;SDS011;50136;51.374;0.096;2023-12-22T01:26:46;16.77;;;4.05;;
63959;SDS011;50136;51.374;0.096;2023-12-22T01:36:48;13.77;;;3.58;;
63959;SDS011;50136;51.374;0.096;2023-12-22T01:46:51;12.55;;;2.83;;
63959;SDS011;50136;51.374;0.096;2023-12-22T01:56:54;6.03;;;1.90;;
63959;SDS011;50136;51.374;0.096;2023-12-22T02:06:58;4.43;;;1.25;;
63959;SDS011;50136;51.374;0.096;2023-12-22T02:17:04;6.07;;;1.50;;
63959;SDS011;50136;51.374;0.096;2023-12-22T02:27:21;6.45;;;1.90;;
63959;SDS011;50136;51.374;0.096;2023-12-22T02:37:30;11.48;;;2.47;;
63959;SDS011;50136;51.374;0.096;2023-12-22T02:47:35;10.02;;;1.98;;
63959;SDS011;50136;51.374;0.096;2023-12-22T02:57:37;7.78;;;2.22;;
63959;SDS011;50136;51.374;0.096;2023-12-22T03:07:40;9.70;;;2.38;;
63959;SDS011;50136;51.374;0.096;2023-12-22T03:17:42;10.05;;;1.83;;
63959;SDS011;50136;51.374;0.096;2023-12-22T03:27:46;9.13;;;2.88;;
63959;SDS011;50136;51.374;0.096;2023-12-22T03:37:48;5.28;;;2.13;;
63959;SDS011;50136;51.374;0.096;2023-12-22T03:47:52;7.50;;;2.60;;
63959;SDS011;50136;51.374;0.096;2023-12-22T03:57:55;9.57;;;1.60;;
63959;SDS011;50136;51.374;0.096;2023-12-22T04:07:58;2.60;;;1.52;;
63959;SDS011;50136;51.374;0.096;2023-12-22T04:18:00;2.67;;;1.10;;
63959;SDS011;50136;51.374;0.096;2023-12-22T04:28:04;4.30;;;1.20;;
63959;SDS011;50136;51.374;0.096;2023-12-22T04:38:07;8.10;;;1.88;;
63959;SDS011;50136;51.374;0.096;2023-12-22T04:48:11;5.97;;;1.23;;
63959;SDS011;50136;51.374;0.096;2023-12-22T04:58:13;4.55;;;1.77;;
63959;SDS011;50136;51.374;0.096;2023-12-22T05:08:16;3.13;;;1.15;;
63959;SDS011;50136;51.374;0.096;2023-12-22T05:18:18;3.33;;;1.20;;
63959;SDS011;50136;51.374;0.096;2023-12-22T05:28:22;1.50;;;0.80;;
63959;SDS011;50136;51.374;0.096;2023-12-22T05:38:24;7.53;;;1.02;;
63959;SDS011;50136;51.374;0.096;2023-12-22T05:48:27;4.40;;;0.68;;
63959;SDS011;50136;51.374;0.096;2023-12-22T05:58:30;0.85;;;0.77;;
63959;SDS011;50136;51.374;0.096;2023-12-22T06:08:33;2.78;;;0.90;;
63959;SDS011;50136;51.374;0.096;2023-12-22T06:18:35;1.15;;;0.65;;
63959;SDS011;50136;51.374;0.096;2023-12-22T06:28:38;5.05;;;1.20;;
63959;SDS011;50136;51.374;0.096;2023-12-22T06:38:42;2.55;;;1.33;;
63959;SDS011;50136;51.374;0.096;2023-12-22T06:48:45;2.05;;;0.95;;
63959;SDS011;50136;51.374;0.096;2023-12-22T06:58:48;1.75;;;1.10;;
63959;SDS011;50136;51.374;0.096;2023-12-22T07:08:58;2.42;;;1.00;;
63959;SDS011;50136;51.374;0.096;2023-12-22T07:19:29;3.75;;;0.70;;
63959;SDS011;50136;51.374;0.096;2023-12-22T07:29:33;2.08;;;0.60;;
63959;SDS011;50136;51.374;0.096;2023-12-22T07:39:35;1.92;;;0.60;;
63959;SDS011;50136;51.374;0.096;2023-12-22T07:49:40;2.55;;;0.60;;
63959;SDS011;50136;51.374;0.096;2023-12-22T07:59:42;4.05;;;0.75;;
63959;SDS011;50136;51.374;0.096;2023-12-22T08:09:45;1.92;;;0.77;;
63959;SDS011;50136;51.374;0.096;2023-12-22T08:19:47;3.72;;;0.88;;
63959;SDS011;50136;51.374;0.096;2023-12-22T08:29:52;5.38;;;0.82;;
63959;SDS011;50136;51.374;0.096;2023-12-22T08:39:54;2.33;;;1.00;;
63959;SDS011;50136;51.374;0.096;2023-12-22T08:49:58;2.90;;;0.85;;
63959;SDS011;50136;51.374;0.096;2023-12-22T09:00:00;5.43;;;1.83;;
63959;SDS011;50136;51.374;0.096;2023-12-22T09:10:04;2.33;;;0.88;;
63959;SDS011;50136;51.374;0.096;2023-12-22T09:20:09;2.58;;;0.85;;
63959;SDS011;50136;51.374;0.096;2023-12-22T09:30:13;4.93;;;1.40;;
63959;SDS011;50136;51.374;0.096;2023-12-22T09:40:15;3.05;;;0.90;;
63959;SDS011;50136;51.374;0.096;2023-12-22T09:50:19;2.78;;;0.90;;
63959;SDS011;50136;51.374;0.096;2023-12-22T10:00:23;2.92;;;1.02;;
63959;SDS011;50136;51.374;0.096;2023-12-22T10:10:28;5.38;;;1.60;;
63959;SDS011;50136;51.374;0.096;2023-12-22T10:20:31;5.10;;;0.82;;
63959;SDS011;50136;51.374;0.096;2023-12-22T10:30:34;3.15;;;1.30;;
63959;SDS011;50136;51.374;0.096;2023-12-22T10:40:37;4.00;;;1.30;;
63959;SDS011;50136;51.374;0.096;2023-12-22T10:50:41;4.75;;;2.03;;
63959;SDS011;50136;51.374;0.096;2023-12-22T11:00:44;9.82;;;3.63;;
63959;SDS011;50136;51.374;0.096;2023-12-22T11:10:49;7.72;;;1.75;;
63959;SDS011;50136;51.374;0.096;2023-12-22T11:20:57;11.10;;;2.03;;
63959;SDS011;50136;51.374;0.096;2023-12-22T11:31:01;5.13;;;1.90;;
63959;SDS011;50136;51.374;0.096;2023-12-22T11:41:03;6.55;;;1.52;;
63959;SDS011;50136;51.374;0.096;2023-12-22T11:51:13;6.50;;;1.83;;
63959;SDS011;50136;51.374;0.096;2023-12-22T12:01:15;12.80;;;2.22;;
63959;SDS011;50136;51.374;0.096;2023-12-22T12:11:20;3.92;;;1.35;;
63959;SDS011;50136;51.374;0.096;2023-12-22T12:21:23;7.18;;;1.75;;
63959;SDS011;50136;51.374;0.096;2023-12-22T12:31:36;4.85;;;1.25;;
63959;SDS011;50136;51.374;0.096;2023-12-22T12:41:40;6.20;;;1.23;;
63959;SDS011;50136;51.374;0.096;2023-12-22T12:51:46;5.40;;;1.40;;
63959;SDS011;50136;51.374;0.096;2023-12-22T13:01:49;2.42;;;1.42;;
63959;SDS011;50136;51.374;0.096;2023-12-22T13:11:52;9.10;;;2.00;;
63959;SDS011;50136;51.374;0.096;2023-12-22T13:21:54;8.00;;;1.80;;
63959;SDS011;50136;51.374;0.096;2023-12-22T13:31:58;9.10;;;1.80;;
63959;SDS011;50136;51.374;0.096;2023-12-22T13:42:01;8.18;;;1.80;;
63959;SDS011;50136;51.374;0.096;2023-12-22T13:52:04;9.07;;;1.92;;
63959;SDS011;50136;51.374;0.096;2023-12-22T14:02:07;5.75;;;1.33;;
63959;SDS011;50136;51.374;0.096;2023-12-22T14:12:10;3.90;;;1.30;;
63959;SDS011;50136;51.374;0.096;2023-12-22T14:22:21;7.93;;;1.77;;
63959;SDS011;50136;51.374;0.096;2023-12-22T14:32:24;12.25;;;1.98;;
63959;SDS011;50136;51.374;0.096;2023-12-22T14:42:29;7.35;;;1.58;;
63959;SDS011;50136;51.374;0.096;2023-12-22T14:52:34;12.15;;;2.03;;
63959;SDS011;50136;51.374;0.096;2023-12-22T15:02:39;8.27;;;1.98;;
63959;SDS011;50136;51.374;0.096;2023-12-22T15:12:42;5.20;;;1.40;;
63959;SDS011;50136;51.374;0.096;2023-12-22T15:22:45;10.35;;;1.70;;
63959;SDS011;50136;51.374;0.096;2023-12-22T15:32:53;6.22;;;1.73;;
63959;SDS011;50136;51.374;0.096;2023-12-22T15:42:56;7.70;;;1.83;;
63959;SDS011;50136;51.374;0.096;2023-12-22T15:53:01;5.25;;;1.17;;
63959;SDS011;50136;51.374;0.096;2023-12-22T16:03:03;10.88;;;1.83;;
63959;SDS011;50136;51.374;0.096;2023-12-22T16:13:11;5.93;;;1.92;;
63959;SDS011;50136;51.374;0.096;2023-12-22T16:23:13;6.80;;;1.42;;
63959;SDS011;50136;51.374;0.096;2023-12-22T16:33:17;9.90;;;2.55;;
63959;SDS011;50136;51.374;0.096;2023-12-22T16:43:19;6.47;;;1.85;;
63959;SDS011;50136;51.374;0.096;2023-12-22T16:53:23;6.32;;;1.40;;
63959;SDS011;50136;51.374;0.096;2023-12-22T17:03:27;2.03;;;1.25;;
63959;SDS011;50136;51.374;0.096;2023-12-22T17:13:30;5.57;;;1.42;;
63959;SDS011;50136;51.374;0.096;2023-12-22T17:23:33;4.93;;;1.40;;
63959;SDS011;50136;51.374;0.096;2023-12-22T17:33:36;8.48;;;2.00;;
63959;SDS011;50136;51.374;0.096;2023-12-22T17:43:39;6.68;;;1.55;;
63959;SDS011;50136;51.374;0.096;2023-12-22T17:53:49;11.25;;;1.95;;
63959;SDS011;50136;51.374;0.096;2023-12-22T18:03:57;2.88;;;1.58;;
63959;SDS011;50136;51.374;0.096;2023-12-22T18:14:01;2.78;;;1.55;;
63959;SDS011;50136;51.374;0.096;2023-12-22T18:24:04;9.07;;;2.83;;
63959;SDS011;50136;51.374;0.096;2023-12-22T18:34:08;5.00;;;1.52;;
63959;SDS011;50136;51.374;0.096;2023-12-22T18:44:10;4.95;;;1.70;;
63959;SDS011;50136;51.374;0.096;2023-12-22T18:54:16;7.20;;;2.65;;
63959;SDS011;50136;51.374;0.096;2023-12-22T19:04:18;6.55;;;2.17;;
63959;SDS011;50136;51.374;0.096;2023-12-22T19:14:22;7.72;;;2.10;;
63959;SDS011;50136;51.374;0.096;2023-12-22T19:24:27;6.63;;;1.35;;
63959;SDS011;50136;51.374;0.096;2023-12-22T19:34:30;7.65;;;1.75;;
63959;SDS011;50136;51.374;0.096;2023-12-22T19:44:35;11.85;;;2.67;;
63959;SDS011;50136;51.374;0.096;2023-12-22T19:54:38;11.30;;;7.00;;
63959;SDS011;50136;51.374;0.096;2023-12-22T20:04:44;9.40;;;2.50;;
63959;SDS011;50136;51.374;0.096;2023-12-22T20:14:47;10.77;;;4.60;;
63959;SDS011;50136;51.374;0.096;2023-12-22T20:24:50;8.38;;;2.92;;
63959;SDS011;50136;51.374;0.096;2023-12-22T20:34:53;7.35;;;2.30;;
63959;SDS011;50136;51.374;0.096;2023-12-22T20:44:55;5.82;;;1.73;;
63959;SDS011;50136;51.374;0.096;2023-12-22T20:54:59;6.88;;;2.45;;
63959;SDS011;50136;51.374;0.096;2023-12-22T21:05:01;7.75;;;2.05;;
63959;SDS011;50136;51.374;0.096;2023-12-22T21:15:06;6.35;;;3.58;;
63959;SDS011;50136;51.374;0.096;2023-12-22T21:25:09;6.47;;;1.92;;
63959;SDS011;50136;51.374;0.096;2023-12-22T21:35:12;14.48;;;3.97;;
63959;SDS011;50136;51.374;0.096;2023-12-22T21:45:14;7.05;;;3.03;;
63959;SDS011;50136;51.374;0.096;2023-12-22T21:55:18;4.47;;;1.92;;
63959;SDS011;50136;51.374;0.096;2023-12-22T22:05:21;4.15;;;1.88;;
63959;SDS011;50136;51.374;0.096;2023-12-22T22:15:25;9.63;;;2.67;;
63959;SDS011;50136;51.374;0.096;2023-12-22T22:25:26;8.07;;;2.03;;
63959;SDS011;50136;51.374;0.096;2023-12-22T22:35:30;8.50;;;2.72;;
63959;SDS011;50136;51.374;0.096;2023-12-22T22:45:32;12.10;;;1.95;;
63959;SDS011;50136;51.374;0.096;2023-12-22T22:55:36;9.95;;;2.05;;
63959;SDS011;50136;51.374;0.096;2023-12-22T23:05:38;5.13;;;1.67;;
63959;SDS011;50136;51.374;0.096;2023-12-22T23:15:41;4.82;;;1.50;;
63959;SDS011;50136;51.374;0.096;2023-12-22T23:25:43;6.45;;;1.70;;
63959;SDS011;50136;51.374;0.096;2023-12-22T23:35:47;6.47;;;1.67;;
63959;SDS011;50136;51.374;0.096;2023-12-22T23:45:49;7.13;;;2.75;;
63959;SDS011;50136;51.374;0.096;2023-12-22T23:55:52;9.52;;;1.90;;
